Time;durP1;ratioP1;P1;durP2;ratioP2;P2;SDS_P1;SDS_P2;PMS_P1;PMS_P2;Temp;Humidity;BMP_temperature;BMP_pressure;BME280_temperature;BME280_humidity;BME280_pressure;Samples;Min_cycle;Max_cycle;Signal;HPM_P1;HPM_P2
2022/01/21 00:01:08;;;;;;;65.77;12.90;;;1.30;99.90;;;;;;5076372;28;20248;-85
2022/01/21 00:03:35;;;;;;;65.80;12.63;;;;;;;;;;5074947;28;20604;-85
2022/01/21 00:06:02;;;;;;;61.70;12.00;;;1.30;99.90;;;;;;5075000;28;20321;-84
2022/01/21 00:08:30;;;;;;;68.47;13.33;;;;;;;;;;5069739;28;20213;-84
2022/01/21 00:10:57;;;;;;;58.57;12.17;;;;;;;;;;5067823;28;20483;-85
2022/01/21 00:13:33;;;;;;;70.77;13.77;;;1.80;99.90;;;;;;5069271;28;20279;-85
2022/01/21 00:16:02;;;;;;;63.33;12.47;;;1.30;99.90;;;;;;5069514;28;20234;-85
2022/01/21 00:18:30;;;;;;;63.07;13.37;;;1.30;99.90;;;;;;5067220;28;20786;-84
2022/01/21 00:31:57;;;;;;;112.40;21.03;;;1.20;99.90;;;;;;5067869;28;20204;-85
2022/01/21 00:34:24;;;;;;;62.07;12.93;;;;;;;;;;5067882;28;20289;-84
2022/01/21 00:36:51;;;;;;;63.73;12.77;;;;;;;;;;5071835;28;20240;-84
2022/01/21 00:39:23;;;;;;;52.67;10.43;;;;;;;;;;5071141;28;20889;-84
2022/01/21 00:41:58;;;;;;;62.40;12.80;;;;;;;;;;5071222;28;20201;-84
2022/01/21 00:44:25;;;;;;;72.43;14.13;;;5.00;99.90;;;;;;5069082;28;20625;-84
2022/01/21 00:46:52;;;;;;;67.17;14.27;;;1.20;99.90;;;;;;5069280;28;20246;-84
2022/01/21 00:49:21;;;;;;;67.87;14.60;;;1.20;99.90;;;;;;5068778;28;20224;-84
2022/01/21 00:51:48;;;;;;;71.63;12.93;;;1.30;99.90;;;;;;5071323;28;20283;-84
2022/01/21 00:54:15;;;;;;;84.87;15.40;;;1.40;99.90;;;;;;5069157;28;20278;-84
2022/01/21 00:56:42;;;;;;;65.80;13.47;;;1.50;99.90;;;;;;5069588;28;20240;-84
2022/01/21 00:59:08;;;;;;;68.80;13.40;;;1.60;99.90;;;;;;5069008;28;20220;-84
2022/01/21 01:01:35;;;;;;;79.30;15.03;;;1.70;99.90;;;;;;5069263;28;21564;-83
2022/01/21 01:04:02;;;;;;;49.63;10.60;;;1.60;99.90;;;;;;5067193;28;20814;-84
2022/01/21 01:06:31;;;;;;;59.87;11.77;;;1.60;99.90;;;;;;5073341;28;20276;-83
2022/01/21 01:08:58;;;;;;;69.60;13.80;;;1.60;99.90;;;;;;5067707;28;20636;-84
2022/01/21 01:11:32;;;;;;;52.37;9.73;;;1.50;99.90;;;;;;5067739;28;20200;-84
2022/01/21 01:22:17;;;;;;;77.53;13.57;;;1.40;99.90;;;;;;5066006;28;20224;-84
2022/01/21 01:27:40;;;;;;;82.60;14.87;;;1.40;99.90;;;;;;5065814;28;20208;-84
2022/01/21 01:30:10;;;;;;;121.53;22.57;;;1.30;99.90;;;;;;5065328;28;20204;-83
2022/01/21 01:32:38;;;;;;;66.33;12.00;;;1.30;99.90;;;;;;5064836;28;20220;-84
2022/01/21 01:35:06;;;;;;;83.67;16.40;;;1.20;99.90;;;;;;5064784;28;20240;-84
2022/01/21 01:37:59;;;;;;;79.77;14.67;;;1.20;99.90;;;;;;5068229;28;20208;-84
2022/01/21 01:40:26;;;;;;;72.20;13.50;;;1.10;99.90;;;;;;5077687;28;20204;-84
2022/01/21 01:43:21;;;;;;;70.43;13.30;;;1.10;99.90;;;;;;5067315;28;20204;-84
2022/01/21 01:51:14;;;;;;;74.80;14.53;;;1.00;99.90;;;;;;5044148;28;20560;-84
2022/01/21 01:53:45;;;;;;;53.83;11.53;;;1.00;99.90;;;;;;5065837;28;20253;-84
2022/01/21 01:56:14;;;;;;;81.97;16.17;;;0.90;99.90;;;;;;5066742;28;20730;-84
2022/01/21 01:58:42;;;;;;;67.73;12.70;;;0.90;99.90;;;;;;5066836;28;20232;-84
2022/01/21 02:01:10;;;;;;;79.63;14.57;;;;;;;;;;5066440;28;20220;-84
2022/01/21 02:03:38;;;;;;;73.67;14.50;;;1.00;99.90;;;;;;5066218;28;20212;-84
2022/01/21 02:06:06;;;;;;;70.40;14.03;;;1.10;99.90;;;;;;5064997;28;20236;-84
2022/01/21 02:08:34;;;;;;;62.07;12.93;;;1.20;99.90;;;;;;5066488;28;20578;-85
2022/01/21 02:11:04;;;;;;;57.43;11.83;;;1.30;99.90;;;;;;5064856;28;20700;-84
2022/01/21 02:13:34;;;;;;;66.50;12.93;;;1.40;99.90;;;;;;5065702;28;20622;-84
2022/01/21 02:16:07;;;;;;;77.73;15.03;;;1.50;99.90;;;;;;5062258;28;20227;-84
2022/01/21 02:21:34;;;;;;;69.90;13.87;;;1.70;99.90;;;;;;5066713;28;20209;-84
2022/01/21 02:24:04;;;;;;;91.57;16.73;;;1.80;99.90;;;;;;5066085;28;20672;-84
2022/01/21 02:26:32;;;;;;;75.93;14.60;;;;;;;;;;5066829;28;20255;-84
2022/01/21 02:29:01;;;;;;;63.07;11.30;;;1.90;99.90;;;;;;5067405;28;20212;-83
2022/01/21 02:31:28;;;;;;;61.67;12.87;;;1.80;99.90;;;;;;5064455;28;20208;-83
2022/01/21 02:33:56;;;;;;;68.30;12.77;;;;;;;;;;5065880;28;20303;-85
2022/01/21 02:36:25;;;;;;;67.37;12.37;;;2.00;99.90;;;;;;5080306;28;20219;-85
2022/01/21 02:38:52;;;;;;;49.30;9.50;;;2.00;99.90;;;;;;5090769;28;20253;-84
2022/01/21 02:41:19;;;;;;;58.83;11.27;;;2.10;99.90;;;;;;5067753;28;20211;-84
2022/01/21 02:43:46;;;;;;;75.40;14.17;;;2.10;99.90;;;;;;5062573;28;20211;-84
2022/01/21 02:46:15;;;;;;;73.50;14.10;;;2.10;99.90;;;;;;5066214;28;20263;-84
2022/01/21 02:48:42;;;;;;;67.87;13.20;;;2.00;99.90;;;;;;5065948;28;20316;-84
2022/01/21 02:51:12;;;;;;;82.27;15.47;;;2.00;99.90;;;;;;5065909;28;20292;-84
2022/01/21 02:56:22;;;;;;;65.67;12.33;;;1.80;99.90;;;;;;5068090;28;20737;-84
2022/01/21 02:58:49;;;;;;;63.80;12.93;;;1.70;99.90;;;;;;5072456;28;20216;-85
2022/01/21 03:01:18;;;;;;;69.57;13.47;;;1.70;99.90;;;;;;5078109;28;20538;-84
2022/01/21 03:03:46;;;;;;;52.60;11.10;;;1.60;99.90;;;;;;5076698;28;20213;-84
2022/01/21 03:06:14;;;;;;;60.73;11.77;;;1.50;99.90;;;;;;5072346;28;21387;-84
2022/01/21 03:08:43;;;;;;;63.63;12.13;;;1.40;99.90;;;;;;5065577;28;20213;-84
2022/01/21 03:11:12;;;;;;;63.63;11.40;;;1.40;99.90;;;;;;5069045;28;20670;-84
2022/01/21 03:13:39;;;;;;;68.57;12.47;;;1.30;99.90;;;;;;5067531;28;20366;-84
2022/01/21 03:16:06;;;;;;;56.43;11.47;;;1.30;99.90;;;;;;5067581;28;20305;-84
2022/01/21 03:18:33;;;;;;;73.83;14.23;;;1.20;99.90;;;;;;5067530;28;20861;-83
2022/01/21 03:21:00;;;;;;;67.90;13.00;;;1.20;99.90;;;;;;5067447;28;20212;-84
2022/01/21 03:23:29;;;;;;;70.13;13.13;;;1.20;99.90;;;;;;5067191;28;20209;-84
2022/01/21 03:25:58;;;;;;;74.60;14.27;;;1.20;99.90;;;;;;5066698;28;20240;-84
2022/01/21 03:28:47;;;;;;;65.93;12.57;;;1.10;99.90;;;;;;5070100;28;20200;-84
2022/01/21 03:31:14;;;;;;;64.50;11.67;;;1.10;99.90;;;;;;5068844;28;20934;-84
2022/01/21 03:33:42;;;;;;;77.00;14.50;;;1.00;99.90;;;;;;5068819;28;20598;-84
2022/01/21 03:36:10;;;;;;;53.53;10.07;;;1.00;99.90;;;;;;5070776;28;20259;-84
2022/01/21 03:38:37;;;;;;;73.33;13.13;;;0.90;99.90;;;;;;5068334;28;20695;-84
2022/01/21 03:41:07;;;;;;;65.37;12.47;;;0.80;99.90;;;;;;5067871;28;20216;-84
2022/01/21 03:43:34;;;;;;;74.10;13.87;;;0.80;99.90;;;;;;5071802;28;20207;-84
2022/01/21 03:46:02;;;;;;;65.93;12.00;;;0.80;99.90;;;;;;5069460;28;20247;-84
2022/01/21 03:48:30;;;;;;;61.63;12.53;;;;;;;;;;5067793;28;20238;-84
2022/01/21 03:50:57;;;;;;;75.90;14.07;;;0.80;99.90;;;;;;5067628;28;20208;-84
2022/01/21 03:53:24;;;;;;;62.57;12.17;;;3.20;99.90;;;;;;5066531;28;20777;-84
2022/01/21 03:55:51;;;;;;;78.80;15.23;;;2.00;99.90;;;;;;5069074;28;20228;-84
2022/01/21 03:58:19;;;;;;;67.30;12.00;;;0.90;99.90;;;;;;5069155;28;20231;-84
2022/01/21 04:00:51;;;;;;;74.97;12.93;;;0.80;99.90;;;;;;5069148;28;20549;-84
2022/01/21 04:03:20;;;;;;;61.97;12.43;;;1.50;99.90;;;;;;5069510;28;20246;-84
2022/01/21 04:05:47;;;;;;;66.03;13.33;;;0.90;99.90;;;;;;5065997;28;20315;-84
2022/01/21 04:08:15;;;;;;;73.07;13.53;;;;;;;;;;5069639;28;20319;-84
2022/01/21 04:10:48;;;;;;;72.50;12.93;;;0.80;99.90;;;;;;5070441;28;20238;-84
2022/01/21 04:13:18;;;;;;;66.33;13.73;;;0.80;99.90;;;;;;5069955;28;20215;-84
2022/01/21 04:15:50;;;;;;;68.83;13.57;;;0.80;99.90;;;;;;5069246;28;20236;-84
2022/01/21 04:18:18;;;;;;;82.47;15.47;;;0.80;99.90;;;;;;5068809;28;20232;-84
2022/01/21 04:20:49;;;;;;;59.73;13.30;;;0.70;99.90;;;;;;5068416;28;20208;-84
2022/01/21 04:23:17;;;;;;;66.90;13.13;;;0.70;99.90;;;;;;5073196;28;20208;-84
2022/01/21 04:25:45;;;;;;;70.23;13.27;;;0.70;99.90;;;;;;5083708;28;20327;-84
2022/01/21 04:28:13;;;;;;;63.87;12.43;;;0.80;99.90;;;;;;5094372;28;20199;-84
2022/01/21 04:30:41;;;;;;;71.37;15.00;;;0.80;99.90;;;;;;5083524;28;20651;-84
2022/01/21 04:33:10;;;;;;;69.03;14.20;;;0.80;99.90;;;;;;5069553;28;20216;-84
2022/01/21 04:35:37;;;;;;;71.70;15.43;;;0.90;99.90;;;;;;5068687;28;20234;-85
2022/01/21 04:38:08;;;;;;;74.80;15.37;;;1.00;99.90;;;;;;5067340;28;20258;-83
2022/01/21 04:40:42;;;;;;;63.40;12.57;;;1.10;99.90;;;;;;5069405;28;20216;-84
2022/01/21 04:48:41;;;;;;;67.27;13.87;;;1.30;99.90;;;;;;5070513;28;20260;-85
2022/01/21 04:51:16;;;;;;;70.97;14.57;;;1.30;99.90;;;;;;5070022;28;20272;-84
2022/01/21 04:53:45;;;;;;;69.23;14.23;;;1.20;99.90;;;;;;5067276;28;20255;-84
2022/01/21 04:56:24;;;;;;;63.07;13.10;;;1.20;99.90;;;;;;5067896;28;20256;-84
2022/01/21 04:58:53;;;;;;;81.00;15.77;;;1.10;99.90;;;;;;5066381;28;20223;-84
2022/01/21 05:01:20;;;;;;;72.67;14.33;;;1.10;99.90;;;;;;5065506;28;20676;-85
2022/01/21 05:03:49;;;;;;;77.20;14.37;;;1.20;99.90;;;;;;5067190;28;20204;-84
2022/01/21 05:06:17;;;;;;;66.00;14.13;;;1.20;99.90;;;;;;5065471;28;20385;-84
2022/01/21 05:08:47;;;;;;;68.23;14.27;;;1.20;99.90;;;;;;5066136;28;20217;-84
2022/01/21 05:11:16;;;;;;;70.57;14.63;;;;;;;;;;5068620;28;20236;-84
2022/01/21 05:13:52;;;;;;;68.33;14.43;;;1.20;99.90;;;;;;5067040;28;20208;-85
2022/01/21 05:16:30;;;;;;;58.47;12.13;;;1.00;99.90;;;;;;5067236;28;20246;-84
2022/01/21 05:19:05;;;;;;;62.53;12.97;;;1.40;99.90;;;;;;5066349;28;20243;-84
2022/01/21 05:22:01;;;;;;;78.53;16.10;;;1.40;99.90;;;;;;5040517;28;20224;-84
2022/01/21 05:24:34;;;;;;;77.43;14.70;;;;;;;;;;5068263;28;20223;-84
2022/01/21 05:27:01;;;;;;;65.03;13.13;;;1.30;99.90;;;;;;5065665;28;20240;-84
2022/01/21 05:29:36;;;;;;;61.57;12.77;;;1.30;99.90;;;;;;5071595;28;20204;-83
2022/01/21 05:32:15;;;;;;;60.67;13.67;;;;;;;;;;5064872;28;20686;-84
2022/01/21 05:35:06;;;;;;;73.10;14.77;;;1.30;99.90;;;;;;5068128;28;20283;-84
2022/01/21 05:37:52;;;;;;;83.87;17.47;;;1.20;99.90;;;;;;5068969;28;20217;-85
2022/01/21 05:40:24;;;;;;;60.20;12.47;;;1.30;99.90;;;;;;5088636;28;20227;-84
2022/01/21 05:43:04;;;;;;;58.03;11.97;;;1.30;99.90;;;;;;5078439;28;20217;-83
2022/01/21 05:48:46;;;;;;;63.13;10.60;;;1.60;99.90;;;;;;5074700;28;20208;-83
2022/01/21 05:51:33;;;;;;;84.30;16.73;;;1.60;99.90;;;;;;5071303;28;20211;-85
2022/01/21 05:54:23;;;;;;;68.90;14.07;;;1.70;99.90;;;;;;5072125;28;20255;-84
2022/01/21 05:57:05;;;;;;;57.57;11.97;;;1.70;99.90;;;;;;5071089;28;20309;-85
2022/01/21 05:59:34;;;;;;;83.23;18.50;;;1.70;99.90;;;;;;5072914;28;20228;-83
2022/01/21 06:02:04;;;;;;;72.93;16.93;;;1.80;99.90;;;;;;5071053;28;20319;-84
2022/01/21 06:04:33;;;;;;;64.57;14.17;;;1.80;99.90;;;;;;5067274;28;20208;-83
2022/01/21 06:07:01;;;;;;;70.27;15.67;;;1.70;99.90;;;;;;5072541;28;20219;-85
2022/01/21 06:09:28;;;;;;;59.33;13.83;;;1.70;99.90;;;;;;5069724;28;20239;-84
2022/01/21 06:11:55;;;;;;;74.33;16.03;;;1.60;99.90;;;;;;5065902;28;20215;-85
2022/01/21 06:14:24;;;;;;;95.07;21.57;;;;;;;;;;5067186;28;20817;-84
2022/01/21 06:16:51;;;;;;;70.33;17.80;;;1.60;99.90;;;;;;5066864;28;20240;-84
2022/01/21 06:19:18;;;;;;;65.10;16.20;;;1.60;99.90;;;;;;5065799;28;20208;-85
2022/01/21 06:21:45;;;;;;;88.60;19.07;;;1.50;99.90;;;;;;5064172;28;20219;-84
2022/01/21 06:24:13;;;;;;;83.50;18.53;;;1.50;99.90;;;;;;5070259;28;20861;-84
2022/01/21 06:26:40;;;;;;;67.33;14.83;;;1.40;99.90;;;;;;5071463;28;20629;-84
2022/01/21 06:29:07;;;;;;;81.43;17.80;;;1.40;99.90;;;;;;5067903;28;20698;-84
2022/01/21 06:31:34;;;;;;;87.33;18.00;;;;;;;;;;5070321;28;20204;-88
2022/01/21 06:34:01;;;;;;;78.17;17.17;;;1.20;99.90;;;;;;5067183;28;20208;-88
2022/01/21 06:36:28;;;;;;;82.37;17.73;;;1.10;99.90;;;;;;5065964;28;20239;-88
2022/01/21 06:38:55;;;;;;;76.97;16.37;;;1.00;99.90;;;;;;5066502;28;20212;-88
2022/01/21 06:41:24;;;;;;;70.47;16.37;;;1.20;99.90;;;;;;5066898;28;20204;-87
2022/01/21 06:43:51;;;;;;;77.07;17.17;;;;;;;;;;5066770;28;20278;-87
2022/01/21 06:46:18;;;;;;;66.13;15.60;;;0.90;99.90;;;;;;5065779;28;20369;-85
2022/01/21 06:48:44;;;;;;;68.07;15.87;;;0.90;99.90;;;;;;5068524;28;20193;-84
2022/01/21 06:51:11;;;;;;;92.77;19.77;;;4.60;99.90;;;;;;5070603;28;20689;-84
2022/01/21 06:53:38;;;;;;;66.13;15.33;;;;;;;;;;5070173;28;20212;-84
2022/01/21 06:56:05;;;;;;;73.50;17.77;;;1.20;99.90;;;;;;5069768;28;20289;-84
2022/01/21 06:58:34;;;;;;;61.77;14.83;;;0.90;99.90;;;;;;5067034;28;20232;-84
2022/01/21 07:01:01;;;;;;;80.53;16.93;;;;;;;;;;5067398;28;20696;-85
2022/01/21 07:03:28;;;;;;;87.50;19.17;;;0.90;99.90;;;;;;5069480;28;20691;-84
2022/01/21 07:05:55;;;;;;;71.17;17.50;;;0.90;99.90;;;;;;5069801;28;20290;-85
2022/01/21 07:08:21;;;;;;;70.90;17.43;;;0.90;99.90;;;;;;5067982;28;20261;-84
2022/01/21 07:10:48;;;;;;;82.60;18.67;;;0.80;99.90;;;;;;5069356;28;20215;-84
2022/01/21 07:13:15;;;;;;;74.27;19.47;;;0.70;99.90;;;;;;5070705;28;20207;-84
2022/01/21 07:15:44;;;;;;;76.73;18.77;;;0.80;99.90;;;;;;5070428;28;20239;-85
2022/01/21 07:18:10;;;;;;;91.20;21.60;;;0.80;99.90;;;;;;5072069;28;20215;-84
2022/01/21 07:20:38;;;;;;;70.67;17.30;;;3.70;99.90;;;;;;5073385;28;20223;-85
2022/01/21 07:23:04;;;;;;;74.27;18.30;;;0.80;99.90;;;;;;5074380;28;20205;-85
2022/01/21 07:25:31;;;;;;;67.37;16.20;;;0.80;99.90;;;;;;5073500;28;20235;-84
2022/01/21 07:28:00;;;;;;;76.57;18.10;;;0.80;99.90;;;;;;5072114;28;20216;-88
2022/01/21 07:30:27;;;;;;;99.37;20.67;;;;;;;;;;5071038;28;20207;-87
2022/01/21 07:32:57;;;;;;;96.10;20.93;;;0.60;99.90;;;;;;5068706;28;20221;-89
2022/01/21 07:35:24;;;;;;;69.10;16.57;;;0.60;99.90;;;;;;5069665;28;20320;-88
2022/01/21 07:37:51;;;;;;;75.47;17.83;;;;;;;;;;5068769;28;20201;-87
2022/01/21 07:40:18;;;;;;;80.13;19.00;;;0.70;99.90;;;;;;5063710;28;20220;-87
2022/01/21 07:42:45;;;;;;;80.70;19.30;;;0.70;99.90;;;;;;5071342;28;20212;-86
2022/01/21 07:45:12;;;;;;;87.73;20.60;;;;;;;;;;5077409;28;20247;-86
2022/01/21 07:47:39;;;;;;;68.47;17.33;;;;;;;;;;5070520;28;20669;-86
2022/01/21 07:50:09;;;;;;;110.60;22.47;;;0.90;99.90;;;;;;5068456;28;20659;-87
2022/01/21 07:52:36;;;;;;;74.80;17.83;;;0.90;99.90;;;;;;5078085;28;20336;-86
2022/01/21 07:55:03;;;;;;;61.10;14.13;;;;;;;;;;5082303;28;20216;-86
2022/01/21 07:57:31;;;;;;;60.40;14.57;;;;;;;;;;5075317;28;20631;-86
2022/01/21 07:59:57;;;;;;;68.57;15.37;;;0.80;99.90;;;;;;5074439;28;20337;-87
2022/01/21 08:02:26;;;;;;;70.70;16.90;;;0.80;99.90;;;;;;5073843;28;20212;-86
2022/01/21 08:04:54;;;;;;;75.17;15.93;;;0.80;99.90;;;;;;5073240;28;20619;-87
2022/01/21 08:07:23;;;;;;;68.20;14.17;;;;;;;;;;5070484;28;20299;-86
2022/01/21 08:09:50;;;;;;;76.60;16.47;;;1.00;99.90;;;;;;5069751;28;20254;-87
2022/01/21 08:12:18;;;;;;;65.03;15.87;;;1.00;99.90;;;;;;5070253;28;20223;-87
2022/01/21 08:14:47;;;;;;;80.53;17.43;;;1.10;99.90;;;;;;5069550;28;20224;-87
2022/01/21 08:17:13;;;;;;;74.80;16.93;;;1.20;99.90;;;;;;5068554;28;20228;-87
2022/01/21 08:19:41;;;;;;;60.40;15.77;;;1.40;99.90;;;;;;5071573;28;20208;-87
2022/01/21 08:22:07;;;;;;;54.20;14.60;;;1.60;99.90;;;;;;5071347;28;20221;-88
2022/01/21 08:24:36;;;;;;;63.90;16.23;;;;;;;;;;5073930;28;20209;-87
2022/01/21 08:27:04;;;;;;;66.57;15.33;;;2.00;99.90;;;;;;5078956;28;20212;-87
2022/01/21 08:29:35;;;;;;;52.00;12.93;;;1.90;99.90;;;;;;5093124;28;20188;-87
2022/01/21 08:32:02;;;;;;;77.73;16.37;;;2.00;99.90;;;;;;5082638;28;20211;-88
2022/01/21 08:34:34;;;;;;;76.50;17.30;;;2.00;99.90;;;;;;5071046;28;20261;-87
2022/01/21 08:37:01;;;;;;;77.47;17.50;;;2.10;99.90;;;;;;5073808;28;20281;-87
2022/01/21 08:39:28;;;;;;;64.50;13.00;;;2.10;99.90;;;;;;5076954;28;20192;-88
2022/01/21 08:41:57;;;;;;;46.07;11.20;;;;;;;;;;5090322;28;20205;-87
2022/01/21 08:44:23;;;;;;;72.23;17.23;;;2.10;99.90;;;;;;5082880;28;20201;-88
2022/01/21 08:46:50;;;;;;;67.30;16.23;;;2.10;99.90;;;;;;5073317;28;20224;-88
2022/01/21 08:49:20;;;;;;;50.63;11.97;;;2.10;99.90;;;;;;5071818;28;20219;-88
2022/01/21 08:51:51;;;;;;;63.70;15.33;;;2.40;99.90;;;;;;5076006;28;20215;-87
2022/01/21 08:54:18;;;;;;;78.23;17.00;;;2.60;99.90;;;;;;5074435;28;20213;-88
2022/01/21 08:56:48;;;;;;;85.33;17.30;;;2.80;99.90;;;;;;5074451;28;20224;-88
2022/01/21 08:59:17;;;;;;;71.30;17.00;;;2.90;99.90;;;;;;5075970;28;20216;-88
2022/01/21 09:01:45;;;;;;;71.07;15.73;;;2.90;99.90;;;;;;5079656;28;20514;-88
2022/01/21 09:04:12;;;;;;;72.97;15.03;;;2.90;99.90;;;;;;5076879;28;20216;-88
2022/01/21 09:06:39;;;;;;;65.13;15.00;;;2.90;99.90;;;;;;5081562;28;20229;-88
2022/01/21 09:09:06;;;;;;;86.90;18.20;;;3.10;99.90;;;;;;5078573;28;20216;-88
2022/01/21 09:11:33;;;;;;;69.00;15.30;;;3.10;99.90;;;;;;5084348;28;20220;-88
2022/01/21 09:14:02;;;;;;;66.07;15.73;;;;;;;;;;5081261;28;20231;-88
2022/01/21 09:16:32;;;;;;;59.47;13.37;;;3.10;99.90;;;;;;5075128;28;20282;-87
2022/01/21 09:19:02;;;;;;;62.00;13.87;;;3.10;99.90;;;;;;5076542;28;20282;-88
2022/01/21 09:21:31;;;;;;;54.60;14.07;;;3.20;99.90;;;;;;5079479;28;20219;-87
2022/01/21 09:23:59;;;;;;;78.70;16.07;;;3.50;99.90;;;;;;5073235;28;20235;-88
2022/01/21 09:26:27;;;;;;;52.37;12.17;;;3.70;99.90;;;;;;5076118;28;20250;-88
2022/01/21 09:28:55;;;;;;;63.80;14.07;;;3.90;99.90;;;;;;5074859;28;20215;-88
2022/01/21 09:31:22;;;;;;;66.43;13.87;;;4.70;99.90;;;;;;5071305;28;20219;-89
2022/01/21 09:33:50;;;;;;;61.87;13.30;;;;;;;;;;5076792;28;20215;-88
2022/01/21 09:36:19;;;;;;;66.10;13.70;;;3.90;99.90;;;;;;5075564;28;20233;-87
2022/01/21 09:38:46;;;;;;;75.10;14.80;;;;;;;;;;5074888;28;20251;-88
2022/01/21 09:41:13;;;;;;;65.10;13.90;;;4.00;99.90;;;;;;5068403;28;20209;-87
2022/01/21 09:43:45;;;;;;;76.27;16.20;;;4.00;99.90;;;;;;5067972;28;21151;-87
2022/01/21 09:46:12;;;;;;;67.80;15.30;;;4.20;99.90;;;;;;5067596;28;20234;-87
2022/01/21 09:48:51;;;;;;;64.77;13.93;;;4.20;99.90;;;;;;5067288;28;20212;-87
2022/01/21 09:51:19;;;;;;;69.77;15.00;;;4.30;99.90;;;;;;5066317;28;20675;-88
2022/01/21 09:53:47;;;;;;;68.60;16.13;;;4.50;99.90;;;;;;5062963;28;20201;-87
2022/01/21 09:56:16;;;;;;;69.20;15.90;;;;;;;;;;5067514;28;20239;-87
2022/01/21 09:58:45;;;;;;;60.83;13.80;;;4.70;99.90;;;;;;5065746;28;20299;-87
2022/01/21 10:01:13;;;;;;;77.00;15.60;;;4.70;99.90;;;;;;5066428;28;20281;-87
2022/01/21 10:03:43;;;;;;;59.90;14.00;;;4.70;99.90;;;;;;5067714;28;20203;-87
2022/01/21 10:06:11;;;;;;;57.77;13.00;;;4.90;99.90;;;;;;5067334;28;20239;-87
2022/01/21 10:08:41;;;;;;;48.33;11.63;;;5.10;99.90;;;;;;5069237;28;20215;-87
2022/01/21 10:11:09;;;;;;;83.77;15.83;;;5.00;99.90;;;;;;5066644;28;20234;-88
2022/01/21 10:13:36;;;;;;;76.37;14.30;;;5.40;99.90;;;;;;5067669;28;20244;-87
2022/01/21 10:16:05;;;;;;;57.03;12.53;;;5.40;99.90;;;;;;5066243;28;20877;-88
2022/01/21 10:18:32;;;;;;;65.53;13.63;;;5.40;99.90;;;;;;5067036;28;20215;-89
2022/01/21 10:21:02;;;;;;;51.97;11.60;;;5.50;99.90;;;;;;5063795;28;20208;-88
2022/01/21 10:23:30;;;;;;;52.60;10.07;;;5.60;99.90;;;;;;5066573;28;20208;-87
2022/01/21 10:26:02;;;;;;;53.17;10.77;;;5.90;99.90;;;;;;5077594;28;20241;-88
2022/01/21 10:28:30;;;;;;;72.30;13.87;;;6.60;99.90;;;;;;5068338;28;20278;-88
2022/01/21 10:31:09;;;;;;;63.30;12.83;;;6.10;99.90;;;;;;5066041;28;20236;-88
2022/01/21 10:33:41;;;;;;;50.20;10.17;;;6.20;99.90;;;;;;5064863;28;20238;-88
2022/01/21 10:36:12;;;;;;;55.50;11.33;;;6.20;99.90;;;;;;5066231;28;20868;-88
2022/01/21 10:38:42;;;;;;;45.07;10.17;;;6.30;99.90;;;;;;5075549;28;20227;-88
2022/01/21 10:41:12;;;;;;;53.33;10.90;;;6.40;99.90;;;;;;5071371;28;20273;-88
2022/01/21 10:43:40;;;;;;;56.77;10.70;;;6.40;99.90;;;;;;5069329;28;20216;-88
2022/01/21 10:46:09;;;;;;;49.73;10.70;;;6.40;99.90;;;;;;5073308;28;20221;-88
2022/01/21 10:48:59;;;;;;;51.00;11.13;;;6.40;99.90;;;;;;5081146;28;20208;-88
2022/01/21 10:51:28;;;;;;;60.30;12.73;;;6.40;99.90;;;;;;5072308;28;20287;-88
2022/01/21 10:53:55;;;;;;;65.37;13.73;;;7.00;99.90;;;;;;5075389;28;20214;-88
2022/01/21 10:56:27;;;;;;;49.57;10.50;;;6.60;99.90;;;;;;5072962;28;20228;-87
2022/01/21 10:58:56;;;;;;;47.43;9.87;;;8.30;99.90;;;;;;5072257;28;20229;-88
2022/01/21 11:01:27;;;;;;;64.53;14.17;;;6.70;99.90;;;;;;5070166;28;20213;-87
2022/01/21 11:04:04;;;;;;;59.33;11.47;;;6.80;99.90;;;;;;5076300;28;20216;-87
2022/01/21 11:06:41;;;;;;;57.67;12.03;;;6.80;99.90;;;;;;5073679;28;20231;-87
2022/01/21 11:09:21;;;;;;;61.73;12.67;;;8.30;99.90;;;;;;5071479;28;20304;-87
2022/01/21 11:12:08;;;;;;;58.90;12.43;;;6.80;99.90;;;;;;5065879;28;20208;-88
2022/01/21 11:14:35;;;;;;;47.43;10.60;;;;;;;;;;5066591;28;20733;-87
2022/01/21 11:17:07;;;;;;;52.90;11.40;;;6.80;99.90;;;;;;5067178;28;20237;-88
2022/01/21 11:19:35;;;;;;;43.13;9.63;;;6.80;99.90;;;;;;5072634;28;20262;-87
2022/01/21 11:22:04;;;;;;;55.90;11.87;;;7.80;99.90;;;;;;5070719;28;20217;-87
2022/01/21 11:24:32;;;;;;;61.10;12.83;;;6.80;99.90;;;;;;5074902;28;20204;-87
2022/01/21 11:27:07;;;;;;;52.80;12.03;;;;;;;;;;5073098;28;20228;-87
2022/01/21 11:29:34;;;;;;;56.23;11.40;;;7.00;99.90;;;;;;5073400;28;20223;-87
2022/01/21 11:32:03;;;;;;;70.23;14.63;;;7.00;99.90;;;;;;5069500;28;20689;-87
2022/01/21 11:34:30;;;;;;;60.33;12.80;;;7.20;99.90;;;;;;5073972;28;20216;-87
2022/01/21 11:36:58;;;;;;;67.07;12.90;;;7.40;99.90;;;;;;5072157;28;20246;-89
2022/01/21 11:39:25;;;;;;;49.53;10.57;;;7.60;99.90;;;;;;5074224;28;20833;-87
2022/01/21 11:41:56;;;;;;;48.93;10.73;;;7.60;99.90;;;;;;5073580;28;20207;-87
2022/01/21 11:44:27;;;;;;;52.27;11.03;;;7.70;99.90;;;;;;5072959;28;20214;-88
2022/01/21 11:47:03;;;;;;;52.73;9.53;;;7.70;99.90;;;;;;5071496;28;21064;-89
2022/01/21 11:49:33;;;;;;;49.30;10.43;;;7.70;99.90;;;;;;5084658;28;20193;-91
2022/01/21 11:52:18;;;;;;;34.93;7.77;;;7.60;99.90;;;;;;5096019;28;20194;-90
2022/01/21 11:54:46;;;;;;;48.03;10.20;;;7.50;99.90;;;;;;5077719;28;20280;-88
2022/01/21 11:57:14;;;;;;;45.33;8.93;;;7.40;99.90;;;;;;5071878;28;20233;-88
2022/01/21 11:59:51;;;;;;;43.93;9.40;;;7.40;99.90;;;;;;5073782;28;20212;-89
2022/01/21 12:02:21;;;;;;;57.60;10.93;;;7.40;99.90;;;;;;5072899;28;20208;-88
2022/01/21 12:04:49;;;;;;;68.73;13.87;;;7.40;99.90;;;;;;5071749;28;20246;-86
2022/01/21 12:07:57;;;;;;;57.13;11.60;;;7.50;99.90;;;;;;5076832;28;20236;-87
2022/01/21 12:10:36;;;;;;;46.73;10.37;;;7.60;99.90;;;;;;5066780;28;20241;-86
2022/01/21 12:13:07;;;;;;;63.10;12.60;;;8.00;99.90;;;;;;5073389;28;20673;-87
2022/01/21 12:16:19;;;;;;;51.87;10.73;;;8.20;99.90;;;;;;5078161;28;20223;-86
2022/01/21 12:19:19;;;;;;;56.90;11.23;;;8.30;99.90;;;;;;5067839;28;20263;-87
2022/01/21 12:21:48;;;;;;;49.90;9.93;;;8.40;99.90;;;;;;5073141;28;20206;-86
2022/01/21 12:24:16;;;;;;;58.17;11.73;;;8.20;99.90;;;;;;5076282;28;20218;-87
2022/01/21 12:26:59;;;;;;;45.73;9.77;;;8.20;99.90;;;;;;5074366;28;20226;-86
2022/01/21 12:29:28;;;;;;;51.30;10.77;;;8.10;99.90;;;;;;5072887;28;20241;-86
2022/01/21 12:32:06;;;;;;;92.07;17.50;;;8.00;99.90;;;;;;5081322;28;20245;-88
2022/01/21 12:35:19;;;;;;;52.73;11.37;;;7.90;99.90;;;;;;5080706;28;20216;-87
2022/01/21 12:41:32;;;;;;;58.70;12.10;;;8.70;99.90;;;;;;5103485;28;20204;-86
2022/01/21 12:44:00;;;;;;;60.00;12.77;;;8.10;99.90;;;;;;5076956;28;20219;-87
2022/01/21 12:46:34;;;;;;;50.13;10.97;;;8.20;99.90;;;;;;5088083;28;20264;-87
2022/01/21 12:49:18;;;;;;;64.67;13.27;;;8.10;99.90;;;;;;5087115;28;20252;-87
2022/01/21 12:52:30;;;;;;;38.00;7.77;;;8.10;99.90;;;;;;5082935;28;20215;-87
2022/01/21 12:57:43;;;;;;;39.67;8.50;;;7.90;99.90;;;;;;5089958;28;20259;-88
2022/01/21 13:00:11;;;;;;;56.37;11.47;;;7.80;99.90;;;;;;5085600;28;20257;-87
2022/01/21 13:02:39;;;;;;;58.03;10.73;;;7.80;99.90;;;;;;5068848;28;20208;-87
2022/01/21 13:05:16;;;;;;;55.17;11.37;;;7.80;99.90;;;;;;5073413;28;20229;-87
2022/01/21 13:08:02;;;;;;;53.83;9.80;;;7.80;99.90;;;;;;5074419;28;20209;-86
2022/01/21 13:10:30;;;;;;;45.97;9.20;;;7.80;99.90;;;;;;5066249;28;20721;-87
2022/01/21 13:13:12;;;;;;;38.87;7.80;;;7.80;99.90;;;;;;5080178;28;20200;-88
2022/01/21 13:15:42;;;;;;;41.20;8.30;;;7.70;99.90;;;;;;5087933;28;20227;-87
2022/01/21 13:18:11;;;;;;;44.13;8.33;;;7.70;99.90;;;;;;5072871;28;20226;-87
2022/01/21 13:20:43;;;;;;;53.10;10.60;;;7.70;99.90;;;;;;5072645;28;20254;-87
2022/01/21 13:23:12;;;;;;;50.43;11.23;;;7.70;99.90;;;;;;5071656;28;20208;-87
2022/01/21 13:25:39;;;;;;;39.30;8.60;;;7.60;99.90;;;;;;5070965;28;20232;-87
2022/01/21 13:28:07;;;;;;;46.27;9.53;;;7.50;99.90;;;;;;5071984;28;20201;-87
2022/01/21 13:30:36;;;;;;;55.13;10.60;;;7.50;99.90;;;;;;5069171;28;20204;-87
2022/01/21 13:33:07;;;;;;;54.20;10.77;;;7.40;99.90;;;;;;5076897;28;20283;-87
2022/01/21 13:35:35;;;;;;;55.97;11.53;;;7.40;99.90;;;;;;5068640;28;20590;-87
2022/01/21 13:38:07;;;;;;;49.97;10.37;;;7.40;99.90;;;;;;5070534;28;20240;-87
2022/01/21 13:40:37;;;;;;;41.47;8.63;;;7.30;99.90;;;;;;5069380;28;20200;-88
2022/01/21 13:43:13;;;;;;;51.27;10.23;;;7.30;99.90;;;;;;5065638;28;20302;-88
2022/01/21 13:45:42;;;;;;;52.53;10.77;;;7.20;99.90;;;;;;5064922;28;20232;-87
2022/01/21 13:48:11;;;;;;;75.17;15.27;;;7.10;99.90;;;;;;5066941;28;20216;-88
2022/01/21 13:50:45;;;;;;;51.57;10.53;;;7.10;99.90;;;;;;5067720;28;20295;-88
2022/01/21 13:53:14;;;;;;;56.17;11.20;;;7.10;99.90;;;;;;5064181;28;20213;-86